Anthony, New Mexico
Current Conditions -  °F | °C
As of 4:58 AM on Saturday 25 Oct 2014 (Local Time) from KBIF Reporting Station
Clear Clear  
Wind Chill: 57°   Ceiling: Unl
Heat Index: 57°   Visibility: 10mi
Dew Point: 50°   Wind: 2mph
Humidity: 75%   Direction: 120°ESE
Pressure: 30.21"   Gusts: NA
Location:  32°N, 106.6°W
Report Text: KBIF 251058Z AUTO 12002KT 10SM CLR 14/10 A3021 RMK AO2 SLP176 T01410098 $
Loading
Personal Weather Stations






























Interactive Weather Map
Tropical Storm Tracking
New forecast layout! Learn more

10-Day Weather Forecast

Advertisements
Track Severe Weather on mobile